CheckWX is a tool to help pilots better visualize weather data.  It is not intended as a substitute for an official pre-flight weather briefing.

01:08:00 UTC

CYDA METAR
Dawson City Airport
Dawson City, Canada
Current

2 hours ago

CYDA 232300Z 08004KT 20SM FEW110 BKN210 M21/M26 A3060 RMK AC2CI4 LAST STFD OBS/NXT 241400Z SLP420
Observed
Feb-23 @ 23:00 UTC
Wind
  • 080° at 4 KTS
Visibility
20 SM
Flight Rules
VFR
Cloud Levels
  • Few at 11,000' AGL
  • Broken at 21,000' AGL
Temperature
-21°C / -6°F
Dewpoint
-26°C / -15°F
Humidity
64%
Altimeter
30.6" Hg
Pressure
1042 hPa
Previous

3 hours ago

CYDA 232200Z 10006KT 20SM FEW180 BKN210 M22/M27 A3062 RMK CC2CI4 SLP427
Observed
Feb-23 @ 22:00 UTC
Wind
  • 100° at 6 KTS
Visibility
20 SM
Flight Rules
VFR
Cloud Levels
  • Few at 18,000' AGL
  • Broken at 21,000' AGL
Temperature
-22°C / -8°F
Dewpoint
-27°C / -17°F
Humidity
64%
Altimeter
30.62" Hg
Pressure
1042.7 hPa
Previous

4 hours ago

CYDA 232100Z 08007KT 060V120 20SM FEW130 BKN210 M24/M29 A3064 RMK AC1CI5 SLP432
Observed
Feb-23 @ 21:00 UTC
Wind
  • 080° at 7 KTS
Visibility
20 SM
Flight Rules
VFR
Cloud Levels
  • Few at 13,000' AGL
  • Broken at 21,000' AGL
Temperature
-24°C / -11°F
Dewpoint
-29°C / -20°F
Humidity
63%
Altimeter
30.64" Hg
Pressure
1043.2 hPa